Time;durP1;ratioP1;P1;durP2;ratioP2;P2;SDS_P1;SDS_P2;PMS_P1;PMS_P2;Temp;Humidity;BMP_temperature;BMP_pressure;BME280_temperature;BME280_humidity;BME280_pressure;Samples;Min_cycle;Max_cycle;Signal;HPM_P1;HPM_P2
2023/03/13 00:01:35;;;;;;;10.00;9.50;;;;;;;-0.08;79.32;92969.88;5069437;28;20226;-73
2023/03/13 00:04:01;;;;;;;11.37;10.73;;;;;;;-0.14;79.40;92967.38;5069259;28;20193;-73
2023/03/13 00:06:33;;;;;;;10.73;10.00;;;;;;;-0.28;79.47;92968.44;5068907;28;20235;-73
2023/03/13 00:08:59;;;;;;;10.80;10.20;;;;;;;-0.34;79.13;92944.38;5070050;28;20245;-73
2023/03/13 00:11:26;;;;;;;10.63;10.10;;;;;;;-0.42;78.20;92910.50;5067997;28;20296;-73
2023/03/13 00:13:56;;;;;;;10.73;10.13;;;;;;;-0.02;78.14;92975.97;5069965;28;20200;-73
2023/03/13 00:16:22;;;;;;;10.80;10.23;;;;;;;-0.02;78.13;92976.75;5069119;28;20236;-72
2023/03/13 00:18:50;;;;;;;10.30;9.70;;;;;;;-0.15;78.17;92965.78;5070085;28;20194;-72
2023/03/13 00:21:17;;;;;;;11.60;10.90;;;;;;;-0.10;78.16;92978.78;5067931;28;21109;-73
2023/03/13 00:23:43;;;;;;;10.70;9.90;;;;;;;-0.13;77.97;92979.19;5069837;28;20282;-72
2023/03/13 00:26:11;;;;;;;11.30;10.47;;;;;;;-0.13;77.91;92979.19;5067947;28;20297;-71
2023/03/13 00:28:38;;;;;;;10.07;9.40;;;;;;;-0.08;76.92;92971.69;5069609;28;20192;-73
2023/03/13 00:31:08;;;;;;;10.60;9.87;;;;;;;-0.05;76.65;92984.09;5068619;28;20233;-72
2023/03/13 00:33:35;;;;;;;10.97;10.37;;;;;;;-0.23;78.41;92978.84;5068740;28;20181;-72
2023/03/13 00:36:04;;;;;;;10.77;10.23;;;;;;;-0.22;77.29;92985.56;5067856;28;20232;-73
2023/03/13 00:38:29;;;;;;;9.77;9.17;;;;;;;-0.28;78.98;92994.06;5069422;28;20182;-73
2023/03/13 00:41:06;;;;;;;11.10;10.23;;;;;;;-0.13;78.48;92984.31;5068588;28;20343;-73
2023/03/13 00:43:32;;;;;;;10.67;10.03;;;;;;;-0.23;77.48;92986.53;5068064;28;20177;-72
2023/03/13 00:45:58;;;;;;;10.90;10.20;;;;;;;-0.28;77.73;92986.38;5068516;28;20255;-72
2023/03/13 00:48:24;;;;;;;10.77;10.07;;;;;;;-0.27;78.59;92990.50;5069611;28;20216;-72
2023/03/13 00:50:49;;;;;;;11.43;10.83;;;;;;;-0.38;79.94;92965.50;5068907;28;20225;-72
2023/03/13 00:53:15;;;;;;;12.03;11.33;;;;;;;-0.32;78.28;92987.75;5069133;28;20196;-72
2023/03/13 00:56:00;;;;;;;11.40;10.70;;;;;;;-0.31;79.78;92982.41;5068709;28;20221;-73
2023/03/13 00:58:27;;;;;;;11.90;11.23;;;;;;;-0.24;80.06;92975.50;5068908;28;20188;-73
2023/03/13 01:00:54;;;;;;;11.03;10.33;;;;;;;-0.48;79.49;92960.78;5068469;28;20228;-72
2023/03/13 01:03:20;;;;;;;11.73;11.00;;;;;;;-0.43;79.93;92984.06;5068853;28;20178;-73
2023/03/13 01:05:57;;;;;;;10.33;9.63;;;;;;;-0.41;79.34;92986.41;5068881;28;20229;-73
2023/03/13 01:08:23;;;;;;;10.20;9.60;;;;;;;-0.44;80.89;92986.81;5068132;28;20248;-73
2023/03/13 01:10:48;;;;;;;12.33;11.47;;;;;;;-0.36;80.56;92984.03;5068258;28;20216;-73
2023/03/13 01:13:14;;;;;;;11.50;10.70;;;;;;;-0.33;80.14;92983.63;5067727;28;20205;-72
2023/03/13 01:15:39;;;;;;;10.30;9.70;;;;;;;-0.47;80.15;92964.94;5068424;28;20229;-72
2023/03/13 01:18:04;;;;;;;10.97;10.27;;;;;;;-0.45;80.13;92980.91;5101171;28;20201;-72
2023/03/13 01:20:30;;;;;;;11.43;10.77;;;;;;;-0.44;80.93;92982.50;5068643;28;20233;-73
2023/03/13 01:22:55;;;;;;;10.03;9.43;;;;;;;-0.46;80.01;92979.34;5066574;28;20202;-73
2023/03/13 01:25:21;;;;;;;11.73;11.13;;;;;;;-0.52;80.06;92966.53;5068037;28;20243;-72
2023/03/13 01:27:46;;;;;;;10.37;9.70;;;;;;;-0.42;79.63;92972.03;5068669;28;20201;-73
2023/03/13 01:30:11;;;;;;;10.90;10.20;;;;;;;-0.42;78.92;92984.84;5068582;28;20232;-73
2023/03/13 01:32:37;;;;;;;10.90;10.07;;;;;;;-0.38;78.93;92983.44;5068358;28;20213;-72
2023/03/13 01:35:02;;;;;;;11.73;11.13;;;;;;;-0.46;78.53;92987.03;5068285;28;20182;-73
2023/03/13 01:37:28;;;;;;;10.60;10.03;;;;;;;-0.50;79.33;92982.50;5067959;28;20201;-73
2023/03/13 01:39:53;;;;;;;10.70;10.10;;;;;;;-0.43;78.78;92984.06;5068213;28;20200;-72
2023/03/13 01:42:18;;;;;;;9.87;9.37;;;;;;;-0.51;79.02;92986.03;5068180;28;21167;-72
2023/03/13 01:44:50;;;;;;;9.97;9.47;;;;;;;-0.51;79.84;92991.19;5068524;28;20240;-72
2023/03/13 01:47:15;;;;;;;10.63;9.93;;;;;;;-0.59;79.33;92996.56;5067909;28;20216;-72
2023/03/13 01:49:41;;;;;;;10.33;9.77;;;;;;;-0.58;80.88;92993.00;5068692;28;20186;-72
2023/03/13 01:52:15;;;;;;;10.13;9.63;;;;;;;-0.66;80.63;92982.94;5065790;28;20252;-72
2023/03/13 01:54:54;;;;;;;11.30;10.60;;;;;;;-0.74;81.32;92994.22;5068233;28;20193;-72
2023/03/13 01:57:29;;;;;;;10.43;9.83;;;;;;;-0.68;80.00;92995.97;5066421;28;20206;-72
2023/03/13 02:00:03;;;;;;;11.27;10.57;;;;;;;-0.73;79.71;92998.34;5066220;28;20190;-72
2023/03/13 02:02:30;;;;;;;11.20;10.53;;;;;;;-0.65;81.09;92987.06;5071328;28;20204;-72
2023/03/13 02:05:00;;;;;;;10.30;9.80;;;;;;;-0.67;79.71;92977.03;5071625;28;20189;-73
2023/03/13 02:07:41;;;;;;;9.97;9.50;;;;;;;-0.65;79.52;92999.91;5071075;28;20181;-72
2023/03/13 02:10:09;;;;;;;10.50;10.00;;;;;;;-0.67;78.83;92999.34;5071525;28;20185;-72
2023/03/13 02:12:39;;;;;;;10.10;9.60;;;;;;;-0.73;80.49;92997.56;5071773;28;20284;-72
2023/03/13 02:15:18;;;;;;;12.07;11.17;;;;;;;-0.77;79.85;92986.94;5071252;28;20212;-72
2023/03/13 02:17:45;;;;;;;10.77;10.17;;;;;;;-0.63;80.62;92991.03;5070570;28;20193;-73
2023/03/13 02:20:13;;;;;;;10.87;10.00;;;;;;;-0.66;80.88;93000.91;5071656;28;20233;-73
2023/03/13 02:22:43;;;;;;;10.83;10.23;;;;;;;-0.59;79.98;93006.81;5071518;28;20603;-73
2023/03/13 02:25:08;;;;;;;11.43;10.83;;;;;;;-0.63;79.38;93008.97;5071020;28;20216;-73
2023/03/13 02:27:34;;;;;;;10.60;10.07;;;;;;;-0.71;78.80;93016.06;5071437;28;20194;-73
2023/03/13 02:30:00;;;;;;;10.83;10.13;;;;;;;-0.73;78.23;92995.00;5071036;28;20190;-72
2023/03/13 02:32:29;;;;;;;10.30;9.80;;;;;;;-0.62;77.55;93025.91;5071658;28;20221;-72
2023/03/13 02:35:00;;;;;;;9.70;9.20;;;;;;;-0.60;77.27;93029.09;5070934;28;20208;-73
2023/03/13 02:37:28;;;;;;;9.93;9.53;;;;;;;-0.73;78.54;93028.34;5070967;28;20196;-72
2023/03/13 02:39:55;;;;;;;10.63;10.13;;;;;;;-0.71;78.69;93031.47;5070939;28;20194;-73
2023/03/13 02:42:22;;;;;;;9.63;9.13;;;;;;;-0.85;78.42;93025.56;5071238;28;20231;-73
2023/03/13 02:44:50;;;;;;;10.80;10.27;;;;;;;-0.78;78.28;93036.59;5070877;28;20228;-73
2023/03/13 02:47:24;;;;;;;11.00;10.40;;;;;;;-0.63;77.12;93059.44;5070024;28;20539;-73
2023/03/13 02:49:52;;;;;;;10.33;9.63;;;;;;;-0.74;77.08;93053.16;5071901;28;20189;-73
2023/03/13 02:52:26;;;;;;;11.27;10.57;;;;;;;-0.57;76.59;93056.88;5069713;28;20217;-73
2023/03/13 02:54:57;;;;;;;10.40;9.87;;;;;;;-0.59;76.72;93066.53;5070103;28;20201;-73
2023/03/13 02:57:23;;;;;;;11.30;10.70;;;;;;;-0.72;77.95;93065.78;5070701;28;20193;-73
2023/03/13 02:59:48;;;;;;;10.90;10.40;;;;;;;-0.86;77.39;93065.00;5103754;28;20223;-73
2023/03/13 03:02:13;;;;;;;9.93;9.43;;;;;;;-0.98;79.34;93060.69;5070871;28;20829;-73
2023/03/13 03:04:39;;;;;;;10.70;10.20;;;;;;;-0.80;78.76;93063.41;5102396;28;20197;-73
2023/03/13 03:07:04;;;;;;;11.83;11.13;;;;;;;-0.70;78.07;93062.00;5070088;28;20221;-73
2023/03/13 03:09:30;;;;;;;11.23;10.63;;;;;;;-0.79;78.67;93054.72;5070584;28;20197;-72
2023/03/13 03:11:56;;;;;;;11.30;10.60;;;;;;;-0.86;78.73;93056.53;5068872;28;20284;-73
2023/03/13 03:14:21;;;;;;;11.17;10.47;;;;;;;-1.05;80.55;93041.94;5070721;28;20212;-73
2023/03/13 03:16:46;;;;;;;10.37;9.73;;;;;;;-1.06;81.41;93040.38;5070849;28;20276;-73
2023/03/13 03:19:12;;;;;;;11.77;10.87;;;;;;;-0.91;81.27;93058.88;5071124;28;20237;-73
2023/03/13 03:21:38;;;;;;;10.53;9.93;;;;;;;-0.88;79.64;93071.31;5070068;28;20243;-73
2023/03/13 03:24:04;;;;;;;10.73;10.03;;;;;;;-0.82;79.20;93065.38;5070539;28;20192;-73
2023/03/13 03:26:29;;;;;;;11.93;11.23;;;;;;;-0.91;78.35;93082.75;5070440;28;20217;-73
2023/03/13 03:28:55;;;;;;;10.83;10.03;;;;;;;-0.88;78.56;93091.81;5070747;28;20189;-73
2023/03/13 03:31:20;;;;;;;11.27;10.57;;;;;;;-1.02;77.88;93091.03;5068967;28;20229;-73
2023/03/13 03:33:46;;;;;;;11.47;10.77;;;;;;;-0.92;78.11;93106.00;5070531;28;20211;-69
2023/03/13 03:36:17;;;;;;;11.43;10.63;;;;;;;-0.94;78.04;93106.22;5070329;28;20213;-70
2023/03/13 03:38:43;;;;;;;11.87;11.17;;;;;;;-0.99;77.86;93103.44;5069947;28;20196;-70
2023/03/13 03:41:10;;;;;;;12.37;11.67;;;;;;;-0.95;78.64;93111.53;5070166;28;20237;-70
2023/03/13 03:43:35;;;;;;;11.13;10.33;;;;;;;-0.99;79.66;93103.44;5070343;28;20186;-70
2023/03/13 03:46:01;;;;;;;11.43;10.60;;;;;;;-0.92;78.97;93108.56;5069955;28;20237;-69
2023/03/13 03:48:27;;;;;;;12.20;11.13;;;;;;;-1.03;78.89;93096.34;5068745;28;20239;-69
2023/03/13 03:50:53;;;;;;;11.47;10.77;;;;;;;-1.03;78.87;93120.19;5068920;28;20236;-70
2023/03/13 03:53:18;;;;;;;11.97;11.20;;;;;;;-1.15;79.00;93121.75;5070004;28;20178;-70
2023/03/13 03:55:44;;;;;;;12.77;11.97;;;;;;;-0.97;78.05;93123.75;5062494;28;20846;-70
2023/03/13 03:58:09;;;;;;;12.33;11.47;;;;;;;-0.79;76.64;93134.97;5050047;28;20178;-70
2023/03/13 04:00:35;;;;;;;11.80;10.77;;;;;;;-0.83;77.00;93133.00;5055929;28;20232;-70
2023/03/13 04:03:00;;;;;;;10.47;9.83;;;;;;;-0.96;78.58;93118.41;5069876;28;20180;-69
2023/03/13 04:05:25;;;;;;;11.33;10.67;;;;;;;-1.08;79.94;93132.00;5069776;28;20225;-69
2023/03/13 04:07:51;;;;;;;10.90;10.30;;;;;;;-1.11;80.83;93133.19;5069884;28;20200;-70
2023/03/13 04:10:16;;;;;;;11.70;11.00;;;;;;;-1.19;82.83;93142.81;5069455;28;20233;-69
2023/03/13 04:12:42;;;;;;;11.23;10.63;;;;;;;-1.44;82.11;93083.69;5069776;28;20221;-71
2023/03/13 04:15:08;;;;;;;11.40;10.80;;;;;;;-1.17;81.80;93146.00;5069465;28;20224;-70
2023/03/13 04:17:34;;;;;;;12.13;11.47;;;;;;;-1.28;82.49;93157.59;5069608;28;20194;-70
2023/03/13 04:19:59;;;;;;;11.03;10.37;;;;;;;-1.27;83.61;93155.81;5069731;28;20194;-70
2023/03/13 04:22:25;;;;;;;11.10;10.30;;;;;;;-1.34;83.73;93163.50;5069404;28;20201;-70
2023/03/13 04:24:51;;;;;;;11.70;10.93;;;;;;;-1.41;83.00;93161.88;5069472;28;20197;-71
2023/03/13 04:27:16;;;;;;;11.40;10.67;;;;;;;-1.47;83.84;93160.88;5069077;28;20193;-69
2023/03/13 04:29:42;;;;;;;13.07;11.83;;;;;;;-1.54;83.31;93162.63;5069675;28;20247;-69
2023/03/13 04:32:08;;;;;;;11.00;10.17;;;;;;;-1.39;82.53;93159.91;5067111;28;20221;-70
2023/03/13 04:34:33;;;;;;;11.43;10.73;;;;;;;-1.37;81.70;93174.09;5069420;28;20212;-70
2023/03/13 04:36:58;;;;;;;11.13;10.53;;;;;;;-1.28;80.69;93172.16;5069076;28;20256;-69
2023/03/13 04:39:24;;;;;;;10.40;9.70;;;;;;;-1.42;81.46;93173.09;5069562;28;20186;-70
2023/03/13 04:41:54;;;;;;;11.50;10.80;;;;;;;-1.40;82.01;93181.41;5066894;28;20233;-70
2023/03/13 04:44:20;;;;;;;11.90;11.17;;;;;;;-1.39;81.93;93186.31;5068485;28;20284;-70
2023/03/13 04:46:45;;;;;;;10.83;9.90;;;;;;;-1.39;81.28;93176.09;5068790;28;20222;-70
2023/03/13 04:49:11;;;;;;;10.83;10.23;;;;;;;-1.33;81.47;93195.00;5068957;28;20197;-70
2023/03/13 04:51:36;;;;;;;10.80;10.20;;;;;;;-1.25;81.47;93202.50;5068512;28;20221;-69
2023/03/13 04:54:02;;;;;;;11.13;10.47;;;;;;;-1.33;81.24;93200.13;5064560;28;20201;-67
2023/03/13 04:56:28;;;;;;;12.40;11.23;;;;;;;-1.25;80.85;93197.38;5067350;28;21023;-69
2023/03/13 04:58:53;;;;;;;10.80;10.00;;;;;;;-1.20;81.45;93202.72;5066791;28;20197;-68
2023/03/13 05:01:19;;;;;;;12.57;11.87;;;;;;;-1.16;80.49;93197.03;5067863;28;20221;-68
2023/03/13 05:03:45;;;;;;;9.77;8.83;;;;;;;-1.02;80.02;93200.38;5068232;28;20181;-67
2023/03/13 05:06:11;;;;;;;9.90;9.20;;;;;;;-1.25;81.29;93182.00;5066173;28;20229;-66
2023/03/13 05:08:37;;;;;;;9.87;9.27;;;;;;;-1.46;81.10;93148.88;5065377;28;20209;-65
2023/03/13 05:11:03;;;;;;;11.77;11.10;;;;;;;-1.08;81.37;93198.59;5066027;28;20217;-65
2023/03/13 05:13:28;;;;;;;10.80;10.07;;;;;;;-0.98;82.08;93204.16;5067346;28;20185;-66
2023/03/13 05:15:53;;;;;;;10.93;10.13;;;;;;;-0.85;81.47;93204.16;5067556;28;20229;-66
2023/03/13 05:18:19;;;;;;;12.87;11.17;;;;;;;-0.87;81.79;93203.59;5065747;28;20200;-67
2023/03/13 05:20:44;;;;;;;11.13;10.27;;;;;;;-0.82;82.58;93208.88;5068107;28;20249;-67
2023/03/13 05:23:10;;;;;;;11.70;10.73;;;;;;;-0.86;82.82;93223.09;5066378;28;20279;-66
2023/03/13 05:25:35;;;;;;;20.37;13.07;;;;;;;-0.82;83.65;93224.28;5067088;28;20233;-67
2023/03/13 05:28:01;;;;;;;14.40;12.13;;;;;;;-0.77;83.24;93227.84;5068285;28;20200;-67
2023/03/13 05:30:26;;;;;;;12.10;11.00;;;;;;;-0.65;82.92;93235.72;5067087;28;20224;-65
2023/03/13 05:32:51;;;;;;;12.17;11.37;;;;;;;-0.70;82.84;93232.97;5068069;28;20223;-65
2023/03/13 05:35:17;;;;;;;10.40;9.80;;;;;;;-0.51;80.08;93239.88;5068459;28;20243;-70
2023/03/13 05:37:42;;;;;;;12.47;10.90;;;;;;;-0.36;79.35;93243.84;5071927;28;20185;-72
2023/03/13 05:40:09;;;;;;;13.20;12.27;;;;;;;-0.36;78.57;93240.50;5071612;28;20189;-69
2023/03/13 05:42:34;;;;;;;12.43;11.60;;;;;;;-0.43;78.71;93224.31;5071589;28;20194;-68
2023/03/13 05:45:00;;;;;;;12.23;11.33;;;;;;;-0.32;76.70;93232.22;5070243;28;20271;-69
2023/03/13 05:47:25;;;;;;;13.90;12.80;;;;;;;-0.38;76.26;93227.88;5071900;28;20217;-68
2023/03/13 05:49:50;;;;;;;13.30;12.20;;;;;;;-0.18;76.49;93250.94;5071113;28;20197;-71
2023/03/13 05:52:16;;;;;;;12.60;11.70;;;;;;;0.00;74.67;93246.00;5071721;28;20228;-69
2023/03/13 05:54:41;;;;;;;13.17;12.27;;;;;;;0.16;72.67;93252.50;5071090;28;20189;-68
2023/03/13 05:57:07;;;;;;;13.00;12.07;;;;;;;0.39;72.04;93251.06;5071252;28;20222;-69
2023/03/13 05:59:32;;;;;;;15.43;13.83;;;;;;;0.40;72.20;93247.50;5069473;28;20241;-68
2023/03/13 06:01:57;;;;;;;15.40;13.87;;;;;;;0.18;73.07;93238.47;5070223;28;20236;-68
2023/03/13 06:04:23;;;;;;;14.37;13.07;;;;;;;0.60;71.57;93263.66;5069280;28;20220;-68
2023/03/13 06:06:48;;;;;;;13.93;12.73;;;;;;;0.60;70.86;93270.56;5069888;28;20228;-69
2023/03/13 06:09:14;;;;;;;14.57;13.27;;;;;;;0.31;73.36;93266.69;5070466;28;20197;-69
2023/03/13 06:11:40;;;;;;;14.33;13.17;;;;;;;0.32;72.90;93245.16;5070202;28;20239;-68
2023/03/13 06:14:06;;;;;;;14.40;13.10;;;;;;;0.44;73.51;93273.56;5068133;28;20253;-68
2023/03/13 06:16:31;;;;;;;15.10;13.53;;;;;;;0.28;73.61;93268.88;5069395;28;20221;-69
2023/03/13 06:18:57;;;;;;;15.27;13.93;;;;;;;0.22;73.69;93244.78;5071197;28;20185;-70
2023/03/13 06:21:22;;;;;;;16.37;13.60;;;;;;;0.41;72.96;93261.13;5070352;28;20225;-69
2023/03/13 06:23:48;;;;;;;14.73;13.53;;;;;;;0.27;74.91;93268.06;5070676;28;20261;-68
2023/03/13 06:26:13;;;;;;;14.23;13.07;;;;;;;0.66;73.80;93267.97;5070047;28;20251;-69
2023/03/13 06:28:38;;;;;;;17.17;14.00;;;;;;;0.92;71.63;93270.44;5070600;28;20217;-68
2023/03/13 06:31:06;;;;;;;14.03;12.77;;;;;;;0.80;71.37;93261.81;5070596;28;20226;-69
2023/03/13 06:33:31;;;;;;;15.93;14.23;;;;;;;0.84;71.91;93275.81;5069427;28;20194;-69
2023/03/13 06:35:58;;;;;;;14.77;13.43;;;;;;;1.00;71.55;93282.28;5069672;28;20252;-68
2023/03/13 06:38:24;;;;;;;13.97;12.77;;;;;;;1.05;71.67;93261.91;5069271;28;20201;-68
2023/03/13 06:40:49;;;;;;;14.03;12.93;;;;;;;0.86;71.99;93252.47;5070106;28;20233;-69
2023/03/13 06:43:15;;;;;;;16.07;14.67;;;;;;;0.72;73.45;93256.88;5068878;28;20194;-68
2023/03/13 06:45:40;;;;;;;14.40;13.07;;;;;;;0.82;73.90;93251.31;5068364;28;20268;-68
2023/03/13 06:48:06;;;;;;;15.73;14.47;;;;;;;1.23;71.63;93244.78;5068148;28;20189;-68
2023/03/13 06:50:31;;;;;;;14.67;13.17;;;;;;;1.09;71.64;93238.13;5070742;28;20966;-69
2023/03/13 06:52:57;;;;;;;14.90;13.50;;;;;;;1.11;72.82;93235.34;5069243;28;20231;-67
2023/03/13 06:55:23;;;;;;;17.40;13.50;;;;;;;1.28;71.07;93247.53;5070082;28;20237;-68
2023/03/13 06:57:52;;;;;;;17.20;15.37;;;;;;;1.01;71.99;93258.94;5069773;28;20194;-69
2023/03/13 07:00:18;;;;;;;19.90;14.47;;;;;;;1.15;71.53;93255.31;5069455;28;20771;-68
2023/03/13 07:02:44;;;;;;;14.90;12.80;;;;;;;1.22;70.98;93250.13;5069502;28;20221;-68
2023/03/13 07:05:09;;;;;;;16.63;15.20;;;;;;;1.16;71.39;93249.19;5069932;28;20198;-69
2023/03/13 07:07:35;;;;;;;15.80;14.17;;;;;;;1.18;71.21;93236.91;5069669;28;20249;-68
2023/03/13 07:10:01;;;;;;;16.13;14.17;;;;;;;1.16;70.96;93259.47;5068639;28;20227;-68
2023/03/13 07:12:26;;;;;;;16.70;13.33;;;;;;;1.51;69.47;93255.50;5070204;28;20209;-69
2023/03/13 07:14:52;;;;;;;15.50;14.10;;;;;;;1.85;69.64;93249.13;5069381;28;20190;-69
2023/03/13 07:17:17;;;;;;;16.00;14.70;;;;;;;1.82;68.61;93259.84;5068876;28;20197;-69
2023/03/13 07:19:42;;;;;;;14.97;13.67;;;;;;;2.02;68.42;93263.06;5070742;28;20244;-68
2023/03/13 07:22:08;;;;;;;14.50;13.27;;;;;;;2.07;67.80;93246.97;5066118;28;20217;-68
2023/03/13 07:24:33;;;;;;;13.20;12.10;;;;;;;2.34;66.17;93254.25;5069689;28;20194;-69
2023/03/13 07:26:58;;;;;;;18.53;14.67;;;;;;;2.20;66.63;93252.00;5069155;28;20247;-69
2023/03/13 07:29:24;;;;;;;14.83;13.60;;;;;;;2.47;66.13;93245.59;5069757;28;20185;-69
2023/03/13 07:31:49;;;;;;;15.83;14.47;;;;;;;2.53;66.26;93253.25;5068911;28;20233;-69
2023/03/13 07:34:15;;;;;;;15.57;14.17;;;;;;;2.65;65.41;93250.75;5069908;28;20209;-70
2023/03/13 07:36:40;;;;;;;15.20;13.90;;;;;;;2.65;64.94;93251.53;5068358;28;20225;-70
2023/03/13 07:39:06;;;;;;;16.33;14.80;;;;;;;2.57;65.46;93251.06;5069614;28;20800;-69
2023/03/13 07:41:32;;;;;;;14.60;13.30;;;;;;;2.36;65.73;93236.00;5068906;28;20252;-69
2023/03/13 07:43:58;;;;;;;15.93;14.37;;;;;;;2.84;66.26;93249.75;5068325;28;20189;-68
2023/03/13 07:46:24;;;;;;;18.67;14.10;;;;;;;2.95;64.94;93259.34;5067689;28;20253;-70
2023/03/13 07:48:50;;;;;;;17.10;15.50;;;;;;;2.81;65.64;93256.13;5069230;28;20208;-69
2023/03/13 07:51:18;;;;;;;17.43;14.77;;;;;;;3.05;64.22;93259.63;5067306;28;20257;-70
2023/03/13 07:53:46;;;;;;;16.27;14.97;;;;;;;3.01;63.96;93261.06;5068020;28;20213;-67
2023/03/13 07:56:14;;;;;;;15.13;13.97;;;;;;;2.95;64.14;93267.06;5068613;28;20296;-74
2023/03/13 07:58:41;;;;;;;17.27;15.03;;;;;;;3.10;64.32;93263.13;5067815;28;20196;-72
2023/03/13 08:01:15;;;;;;;16.23;13.73;;;;;;;2.87;65.32;93255.28;5069400;28;20255;-72
2023/03/13 08:03:42;;;;;;;16.70;15.10;;;;;;;2.54;66.50;93246.31;5068924;28;20193;-73
2023/03/13 08:06:10;;;;;;;16.27;13.83;;;;;;;2.76;66.04;93243.09;5066961;28;20244;-72
2023/03/13 08:08:36;;;;;;;15.87;14.27;;;;;;;2.88;65.40;93243.16;5069046;28;20212;-70
2023/03/13 08:11:04;;;;;;;16.17;14.77;;;;;;;2.96;65.62;93245.44;5067952;28;20225;-70
2023/03/13 08:13:30;;;;;;;16.13;14.73;;;;;;;3.51;63.76;93241.75;5069632;28;20216;-70
2023/03/13 08:16:17;;;;;;;14.73;13.53;;;;;;;3.71;62.49;93241.44;5068146;28;20224;-70
2023/03/13 08:18:45;;;;;;;17.60;14.23;;;;;;;3.43;63.79;93244.63;5101173;28;20213;-69
2023/03/13 08:21:17;;;;;;;15.90;14.67;;;;;;;3.59;63.77;93243.22;5064787;28;20230;-71
2023/03/13 08:23:43;;;;;;;16.00;14.50;;;;;;;3.71;61.97;93242.25;5067967;28;20185;-70
2023/03/13 08:26:11;;;;;;;15.60;14.10;;;;;;;3.48;62.89;93237.03;5067367;28;20232;-71
2023/03/13 08:28:38;;;;;;;16.87;15.30;;;;;;;3.41;62.82;93246.63;5066220;28;20211;-70
2023/03/13 08:31:11;;;;;;;17.43;15.77;;;;;;;3.60;63.29;93230.09;5067648;28;20217;-71
2023/03/13 08:33:37;;;;;;;16.00;14.47;;;;;;;3.82;62.15;93254.41;5068127;28;20182;-71
2023/03/13 08:36:14;;;;;;;17.43;15.30;;;;;;;3.79;63.63;93249.69;5068656;28;20225;-72
2023/03/13 08:38:41;;;;;;;16.17;14.47;;;;;;;3.96;62.78;93255.78;5066243;28;20201;-71
2023/03/13 08:41:07;;;;;;;17.37;15.73;;;;;;;3.86;62.16;93252.94;5067292;28;20243;-71
2023/03/13 08:43:33;;;;;;;19.13;16.50;;;;;;;4.00;61.95;93251.72;5065976;28;20177;-72
2023/03/13 08:45:58;;;;;;;17.17;15.43;;;;;;;4.03;61.60;93261.59;5068317;28;20267;-73
2023/03/13 08:48:23;;;;;;;16.73;15.10;;;;;;;4.13;59.83;93267.03;5067477;28;20335;-72
2023/03/13 08:51:03;;;;;;;16.93;15.37;;;;;;;3.95;60.72;93220.63;5068206;28;20224;-72
2023/03/13 08:53:28;;;;;;;17.50;15.90;;;;;;;4.02;61.94;93265.22;5064577;28;20189;-71
2023/03/13 08:55:54;;;;;;;19.47;15.87;;;;;;;3.80;63.53;93235.75;5065049;28;20252;-74
2023/03/13 08:58:19;;;;;;;17.63;15.83;;;;;;;3.59;62.60;93228.53;5069551;28;20190;-73
2023/03/13 09:00:45;;;;;;;17.73;15.83;;;;;;;3.83;63.39;93229.38;5068108;28;20233;-74
2023/03/13 09:03:10;;;;;;;16.63;14.90;;;;;;;3.99;62.72;93250.16;5068459;28;20197;-74
2023/03/13 09:05:36;;;;;;;18.10;16.17;;;;;;;4.04;61.57;93239.94;5064638;28;20262;-73
2023/03/13 09:08:02;;;;;;;18.07;16.00;;;;;;;4.45;60.92;93252.75;5066925;28;20190;-74
2023/03/13 09:10:27;;;;;;;21.23;16.30;;;;;;;4.55;60.01;93229.72;5065672;28;20232;-73
2023/03/13 09:12:54;;;;;;;17.70;16.20;;;;;;;5.07;59.56;93237.50;5067320;28;20223;-73
2023/03/13 09:15:19;;;;;;;21.97;18.00;;;;;;;4.99;59.47;93238.63;5067218;28;20222;-73
2023/03/13 09:17:44;;;;;;;20.80;17.30;;;;;;;5.05;59.33;93242.09;5067623;28;20178;-74
2023/03/13 09:20:10;;;;;;;20.50;18.70;;;;;;;4.69;62.01;93245.78;5066936;28;22082;-74
2023/03/13 09:22:35;;;;;;;17.90;16.13;;;;;;;4.64;61.40;93238.69;5066841;28;20193;-74
2023/03/13 09:25:01;;;;;;;21.13;16.67;;;;;;;4.90;60.54;93233.03;5067497;28;20185;-75
2023/03/13 09:27:27;;;;;;;19.73;17.53;;;;;;;4.96;59.00;93239.09;5066917;28;20177;-75
2023/03/13 09:29:53;;;;;;;19.63;16.93;;;;;;;4.81;61.29;93238.78;5065239;28;20201;-74
2023/03/13 09:32:19;;;;;;;19.20;17.40;;;;;;;5.09;58.87;93243.22;5065604;28;20234;-74
2023/03/13 09:34:45;;;;;;;20.63;18.40;;;;;;;5.01;59.95;93241.00;5066466;28;20209;-74
2023/03/13 09:37:10;;;;;;;19.23;16.03;;;;;;;4.96;58.72;93252.81;5066806;28;21762;-74
2023/03/13 09:39:36;;;;;;;18.30;16.60;;;;;;;5.08;58.76;93252.00;5066783;28;20201;-74
2023/03/13 09:42:13;;;;;;;17.57;15.97;;;;;;;5.09;59.71;93256.16;5065613;28;20244;-74
2023/03/13 09:44:52;;;;;;;17.80;15.80;;;;;;;5.31;60.97;93249.34;5066981;28;20236;-74
2023/03/13 09:47:31;;;;;;;21.40;16.97;;;;;;;5.42;58.70;93251.09;5066676;28;20224;-69
2023/03/13 09:50:09;;;;;;;18.17;16.37;;;;;;;5.65;58.49;93249.19;5066216;28;20193;-70
2023/03/13 09:52:39;;;;;;;18.00;16.40;;;;;;;5.42;57.90;93240.72;5066959;28;20216;-69
2023/03/13 09:55:19;;;;;;;18.43;15.37;;;;;;;5.85;57.40;93244.38;5066309;28;20268;-69
2023/03/13 09:57:47;;;;;;;18.57;16.83;;;;;;;6.08;56.13;93246.84;5067312;28;20193;-69
2023/03/13 10:00:35;;;;;;;19.80;17.80;;;;;;;6.25;54.92;93246.84;5066975;28;20240;-69
2023/03/13 10:03:10;;;;;;;19.30;17.50;;;;;;;6.20;54.64;93237.19;5065586;28;20223;-69
2023/03/13 10:05:38;;;;;;;19.73;16.90;;;;;;;5.90;54.46;93228.94;5066348;28;20251;-66
2023/03/13 10:08:22;;;;;;;19.63;17.80;;;;;;;5.87;54.44;93244.16;5065026;28;20750;-68
2023/03/13 10:10:54;;;;;;;19.30;16.83;;;;;;;5.81;55.14;93238.06;5065971;28;20344;-69
2023/03/13 10:13:33;;;;;;;19.13;17.37;;;;;;;5.91;55.79;93245.25;5066441;28;20217;-69
2023/03/13 10:16:08;;;;;;;19.80;17.77;;;;;;;5.62;57.72;93230.75;5066744;28;20232;-70
2023/03/13 10:18:35;;;;;;;18.30;16.43;;;;;;;5.76;57.56;93224.28;5065914;28;20208;-70
2023/03/13 10:21:11;;;;;;;19.97;18.13;;;;;;;6.38;54.83;93211.00;5066955;28;20225;-72
2023/03/13 10:24:02;;;;;;;17.50;15.80;;;;;;;6.32;55.81;93208.56;5070137;28;20265;-70
2023/03/13 10:26:31;;;;;;;18.57;16.77;;;;;;;6.52;54.49;93206.28;5070442;28;20238;-71
2023/03/13 10:29:01;;;;;;;21.27;18.00;;;;;;;6.52;53.48;93204.44;5070216;28;20775;-70
2023/03/13 10:31:36;;;;;;;18.20;16.43;;;;;;;6.08;54.09;93199.41;5070824;28;20233;-71
2023/03/13 10:34:19;;;;;;;20.53;18.47;;;;;;;6.50;54.59;93179.78;5068630;28;20219;-69
2023/03/13 10:36:48;;;;;;;20.03;17.10;;;;;;;6.70;53.15;93190.44;5069371;28;20229;-70
2023/03/13 10:39:16;;;;;;;19.30;17.33;;;;;;;6.39;53.53;93184.06;5068734;28;20192;-70
2023/03/13 10:41:41;;;;;;;22.63;18.40;;;;;;;6.69;53.63;93186.28;5069707;28;20241;-69
2023/03/13 10:44:15;;;;;;;19.87;17.60;;;;;;;6.42;55.12;93186.19;5070947;28;20294;-70
2023/03/13 10:46:44;;;;;;;20.00;18.00;;;;;;;6.64;54.86;93173.22;5069403;28;20259;-70
2023/03/13 10:49:22;;;;;;;18.53;16.80;;;;;;;7.02;53.52;93170.56;5069614;28;20189;-70
2023/03/13 10:51:59;;;;;;;18.90;15.17;;;;;;;6.88;53.32;93174.56;5070475;28;20246;-70
2023/03/13 10:54:30;;;;;;;18.30;16.50;;;;;;;7.34;52.73;93171.44;5069297;28;21044;-69
2023/03/13 10:57:17;;;;;;;19.00;17.10;;;;;;;7.31;51.97;93176.34;5068033;28;20233;-71
2023/03/13 10:59:45;;;;;;;20.23;18.00;;;;;;;6.96;52.05;93171.53;5067058;28;20193;-70
2023/03/13 11:02:38;;;;;;;19.27;17.37;;;;;;;6.60;53.85;93174.72;5070105;28;20244;-70
2023/03/13 11:05:22;;;;;;;18.63;16.37;;;;;;;7.16;52.61;93171.00;5067306;28;20209;-70
2023/03/13 11:07:48;;;;;;;18.70;16.90;;;;;;;6.49;54.93;93155.66;5068912;28;20215;-70
2023/03/13 11:10:18;;;;;;;18.53;16.77;;;;;;;6.70;56.00;93138.53;5069621;28;20225;-70
2023/03/13 11:12:45;;;;;;;18.80;17.00;;;;;;;6.99;54.84;93147.69;5068777;28;20217;-70
2023/03/13 11:15:17;;;;;;;19.87;17.60;;;;;;;7.06;52.30;93150.88;5070480;28;20315;-69
2023/03/13 11:17:51;;;;;;;19.27;17.23;;;;;;;7.50;51.16;93157.56;5068765;28;20182;-70
2023/03/13 11:20:16;;;;;;;19.17;17.57;;;;;;;7.88;50.38;93148.78;5069795;28;20221;-70
2023/03/13 11:22:44;;;;;;;18.37;16.57;;;;;;;7.86;49.81;93149.03;5070476;28;20201;-70
2023/03/13 11:25:34;;;;;;;20.30;18.23;;;;;;;7.78;51.62;93140.91;5068649;28;20196;-70